createdAt,value
2018-06-12T00:05:14.767Z,13.30
2018-06-12T00:07:50.335Z,13.30
2018-06-12T00:10:26.465Z,13.20
2018-06-12T00:13:00.868Z,13.10
2018-06-12T00:15:35.387Z,13.00
2018-06-12T00:18:09.790Z,13.10
2018-06-12T00:20:44.233Z,13.10
2018-06-12T00:23:19.469Z,13.00
2018-06-12T00:25:54.420Z,13.00
2018-06-12T00:28:29.334Z,12.90
2018-06-12T00:31:03.723Z,12.90
2018-06-12T00:33:38.872Z,12.80
2018-06-12T00:36:13.538Z,12.80
2018-06-12T00:38:47.820Z,12.90
2018-06-12T00:41:22.252Z,12.80
2018-06-12T00:43:57.017Z,12.80
2018-06-12T00:46:31.400Z,12.80
2018-06-12T00:49:06.149Z,12.70
2018-06-12T00:51:40.933Z,12.70
2018-06-12T00:54:15.601Z,12.70
2018-06-12T00:57:04.768Z,12.70
2018-06-12T00:59:40.007Z,12.70
2018-06-12T01:02:15.246Z,12.70
2018-06-12T01:04:49.460Z,12.70
2018-06-12T01:07:23.782Z,12.60
2018-06-12T01:09:58.215Z,12.60
2018-06-12T01:12:34.144Z,12.60
2018-06-12T01:15:13.601Z,12.60
2018-06-12T01:17:48.198Z,12.60
2018-06-12T01:20:23.052Z,12.60
2018-06-12T01:22:57.766Z,12.50
2018-06-12T01:25:32.089Z,12.50
2018-06-12T01:28:06.337Z,12.50
2018-06-12T01:30:41.002Z,12.50
2018-06-12T01:33:15.352Z,12.50
2018-06-12T01:35:49.861Z,12.60
2018-06-12T01:38:24.616Z,12.60
2018-06-12T01:40:59.636Z,12.50
2018-06-12T01:43:34.208Z,12.50
2018-06-12T01:46:08.775Z,12.50
2018-06-12T01:48:44.062Z,12.50
2018-06-12T01:51:18.456Z,12.50
2018-06-12T01:53:52.864Z,12.50
2018-06-12T01:56:27.179Z,12.50
2018-06-12T01:59:01.501Z,12.40
2018-06-12T02:01:35.904Z,12.40
2018-06-12T02:04:10.189Z,12.30
2018-06-12T02:06:44.733Z,12.30
2018-06-12T02:11:53.398Z,12.30
2018-06-12T02:14:27.732Z,12.30
2018-06-12T02:17:02.123Z,12.30
2018-06-12T02:19:36.496Z,12.20
2018-06-12T02:22:10.866Z,12.20
2018-06-12T02:24:45.703Z,12.20
2018-06-12T02:27:20.615Z,12.10
2018-06-12T02:29:55.076Z,12.20
2018-06-12T02:32:29.426Z,12.30
2018-06-12T02:35:03.803Z,12.30
2018-06-12T02:37:40.712Z,12.30
2018-06-12T02:40:15.948Z,12.30
2018-06-12T02:42:50.391Z,12.40
2018-06-12T02:45:25.656Z,12.40
2018-06-12T02:48:01.485Z,12.50
2018-06-12T02:50:35.913Z,12.50
2018-06-12T02:55:49.118Z,12.60
2018-06-12T02:58:24.472Z,12.60
2018-06-12T03:00:58.893Z,12.70
2018-06-12T03:03:33.484Z,12.70
2018-06-12T03:06:07.869Z,12.70
2018-06-12T03:08:42.376Z,12.70
2018-06-12T03:11:16.664Z,12.70
2018-06-12T03:13:51.541Z,12.70
2018-06-12T03:16:26.021Z,12.70
2018-06-12T03:19:00.284Z,12.70
2018-06-12T03:21:35.714Z,12.70
2018-06-12T03:24:10.009Z,12.70
2018-06-12T03:26:44.360Z,12.70
2018-06-12T03:29:18.771Z,12.70
2018-06-12T03:31:53.167Z,12.80
2018-06-12T03:34:27.363Z,12.80
2018-06-12T03:37:01.806Z,12.80
2018-06-12T03:39:36.451Z,12.80
2018-06-12T03:42:11.754Z,12.80
2018-06-12T03:44:46.218Z,12.90
2018-06-12T03:47:20.520Z,12.90
2018-06-12T03:49:55.765Z,13.00
2018-06-12T03:52:30.362Z,13.00
2018-06-12T03:55:05.076Z,13.10
2018-06-12T03:57:40.527Z,13.20
2018-06-12T04:00:14.796Z,13.20
2018-06-12T04:02:49.116Z,13.30
2018-06-12T04:05:23.692Z,13.20
2018-06-12T04:07:57.871Z,13.30
2018-06-12T04:10:32.238Z,13.40
2018-06-12T04:13:07.800Z,13.40
2018-06-12T04:15:42.863Z,13.30
2018-06-12T04:18:17.056Z,13.30
2018-06-12T04:23:25.456Z,13.40
2018-06-12T04:25:59.721Z,13.50
2018-06-12T04:28:33.900Z,13.60
2018-06-12T04:31:08.116Z,13.70
2018-06-12T04:33:42.316Z,13.60
2018-06-12T04:36:16.651Z,13.60
2018-06-12T04:38:50.972Z,13.70
2018-06-12T04:41:25.412Z,13.80
2018-06-12T04:43:59.937Z,13.80
2018-06-12T04:46:34.219Z,13.90
2018-06-12T04:49:08.680Z,14.00
2018-06-12T04:51:42.967Z,14.00
2018-06-12T04:54:17.372Z,14.00
2018-06-12T04:56:51.793Z,14.00
2018-06-12T04:59:26.080Z,14.10
2018-06-12T05:02:00.264Z,14.20
2018-06-12T05:04:34.584Z,14.20
2018-06-12T05:07:08.905Z,14.30
2018-06-12T05:12:17.520Z,14.40
2018-06-12T05:14:52.404Z,14.50
2018-06-12T05:17:26.599Z,14.50
2018-06-12T05:20:02.890Z,14.60
2018-06-12T05:22:37.019Z,14.60
2018-06-12T05:25:14.060Z,14.60
2018-06-12T05:27:49.784Z,14.50
2018-06-12T05:30:24.002Z,14.60
2018-06-12T05:32:58.221Z,14.60
2018-06-12T05:35:33.026Z,14.60
2018-06-12T05:38:09.638Z,14.50
2018-06-12T05:40:45.808Z,14.30
2018-06-12T05:43:21.246Z,14.20
2018-06-12T05:45:55.885Z,14.20
2018-06-12T05:48:30.501Z,14.30
2018-06-12T05:51:11.324Z,14.40
2018-06-12T05:53:47.863Z,14.50
2018-06-12T05:56:24.213Z,14.70
2018-06-12T05:58:59.922Z,14.80
2018-06-12T06:01:34.506Z,14.90
2018-06-12T06:04:09.204Z,15.00
2018-06-12T06:06:43.932Z,15.20
2018-06-12T06:09:22.264Z,15.20
2018-06-12T06:11:57.271Z,15.00
2018-06-12T06:14:32.517Z,14.80
2018-06-12T06:17:10.468Z,14.60
2018-06-12T06:19:51.213Z,14.60
2018-06-12T06:22:31.435Z,14.60
2018-06-12T06:25:09.276Z,14.70
2018-06-12T06:27:45.536Z,14.70
2018-06-12T06:30:27.716Z,14.80
2018-06-12T06:33:03.974Z,15.10
2018-06-12T06:38:18.472Z,15.20
2018-06-12T06:40:56.587Z,15.50
2018-06-12T06:43:32.209Z,15.40
2018-06-12T06:46:09.307Z,15.30
2018-06-12T06:48:44.549Z,15.40
2018-06-12T06:51:22.472Z,15.50
2018-06-12T06:54:00.975Z,15.60
2018-06-12T06:56:37.037Z,15.90
2018-06-12T06:59:16.064Z,16.30
2018-06-12T07:01:52.734Z,16.40
2018-06-12T07:04:31.773Z,16.20
2018-06-12T07:07:06.336Z,16.30
2018-06-12T07:09:42.149Z,16.40
2018-06-12T07:12:17.238Z,16.40
2018-06-12T07:14:55.114Z,16.50
2018-06-12T07:17:29.904Z,16.60
2018-06-12T07:20:08.536Z,16.90
2018-06-12T07:22:58.540Z,17.00
2018-06-12T07:25:33.149Z,17.00
2018-06-12T07:28:09.102Z,16.90
2018-06-12T07:30:45.364Z,17.10
2018-06-12T07:33:20.908Z,17.10
2018-06-12T07:41:52.385Z,16.70
2018-06-12T07:44:29.671Z,16.70
2018-06-12T07:47:05.285Z,17.00
2018-06-12T07:49:45.686Z,17.10
2018-06-12T07:52:21.507Z,17.20
2018-06-12T07:57:54.964Z,17.30
2018-06-12T08:00:29.883Z,17.20
2018-06-12T08:03:17.705Z,17.10
2018-06-12T08:05:55.495Z,17.30
2018-06-12T08:08:36.209Z,17.10
2018-06-12T08:13:55.693Z,17.10
2018-06-12T08:16:36.658Z,17.30
2018-06-12T08:19:11.073Z,17.40
2018-06-12T08:21:45.904Z,17.30
2018-06-12T08:24:22.396Z,17.20
2018-06-12T08:26:57.496Z,17.20
2018-06-12T08:29:38.199Z,17.20
2018-06-12T08:32:13.846Z,17.10
2018-06-12T08:34:51.565Z,16.80
2018-06-12T08:37:30.863Z,16.70
2018-06-12T08:40:08.746Z,16.70
2018-06-12T08:42:46.659Z,16.70
2018-06-12T08:45:23.248Z,16.80
2018-06-12T08:47:59.569Z,16.70
2018-06-12T08:50:34.639Z,16.90
2018-06-12T08:53:10.479Z,17.10
2018-06-12T08:58:22.455Z,17.20
2018-06-12T09:01:01.528Z,17.80
2018-06-12T09:03:38.158Z,17.90
2018-06-12T09:06:15.760Z,18.50
2018-06-12T09:08:51.509Z,19.00
2018-06-12T09:11:28.146Z,19.20
2018-06-12T09:14:05.335Z,18.50
2018-06-12T09:16:40.884Z,18.20
2018-06-12T09:19:19.632Z,18.00
2018-06-12T09:21:58.698Z,18.10
2018-06-12T09:24:33.432Z,18.30
2018-06-12T09:27:08.537Z,18.20
2018-06-12T09:29:45.327Z,18.60
2018-06-12T09:32:23.531Z,18.80
2018-06-12T09:34:59.680Z,18.60
2018-06-12T09:37:35.108Z,18.50
2018-06-12T09:40:10.590Z,18.10
2018-06-12T09:42:45.626Z,18.20
2018-06-12T09:45:19.817Z,18.40
2018-06-12T09:47:54.931Z,18.30
2018-06-12T09:50:30.323Z,18.10
2018-06-12T09:53:09.126Z,18.20
2018-06-12T09:55:44.617Z,18.30
2018-06-12T09:58:19.425Z,18.50
2018-06-12T10:00:59.662Z,18.50
2018-06-12T10:03:33.957Z,18.50
2018-06-12T10:06:09.445Z,18.50
2018-06-12T10:08:44.010Z,18.20
2018-06-12T10:11:21.132Z,18.30
2018-06-12T10:13:56.256Z,18.40
2018-06-12T10:16:31.774Z,18.20
2018-06-12T10:19:06.257Z,18.40
2018-06-12T10:21:45.054Z,18.40
2018-06-12T10:24:20.449Z,18.60
2018-06-12T10:27:02.925Z,19.10
2018-06-12T10:29:38.428Z,19.40
2018-06-12T10:32:15.712Z,19.30
2018-06-12T10:34:50.155Z,19.20
2018-06-12T10:40:08.017Z,19.60
2018-06-12T10:42:42.217Z,19.40
2018-06-12T10:45:16.742Z,19.30
2018-06-12T10:47:51.405Z,19.10
2018-06-12T10:50:25.785Z,18.90
2018-06-12T10:53:00.466Z,19.00
2018-06-12T10:55:34.947Z,18.90
2018-06-12T10:58:09.149Z,19.00
2018-06-12T11:00:44.519Z,19.20
2018-06-12T11:03:20.872Z,19.10
2018-06-12T11:05:57.452Z,18.90
2018-06-12T11:08:35.404Z,18.90
2018-06-12T11:11:09.752Z,19.10
2018-06-12T11:13:45.490Z,18.90
2018-06-12T11:16:21.534Z,18.60
2018-06-12T11:18:56.184Z,18.60
2018-06-12T11:21:31.518Z,18.60
2018-06-12T11:24:05.996Z,18.60
2018-06-12T11:26:42.324Z,18.30
2018-06-12T11:29:17.908Z,18.30
2018-06-12T11:31:52.584Z,18.70
2018-06-12T11:34:28.793Z,18.70
2018-06-12T11:39:39.588Z,19.20
2018-06-12T11:42:15.453Z,19.60
2018-06-12T11:44:51.413Z,19.70
2018-06-12T11:47:26.444Z,19.90
2018-06-12T11:50:01.736Z,20.50
2018-06-12T11:52:37.945Z,20.50
2018-06-12T11:55:12.881Z,20.00
2018-06-12T11:57:49.496Z,19.20
2018-06-12T12:00:24.383Z,19.20
2018-06-12T12:02:59.669Z,19.20
2018-06-12T12:05:34.925Z,19.10
2018-06-12T12:08:09.123Z,19.00
2018-06-12T12:10:43.984Z,18.90
2018-06-12T12:13:18.104Z,19.00
2018-06-12T12:15:52.402Z,19.30
2018-06-12T12:18:26.948Z,19.60
2018-06-12T12:21:01.345Z,19.60
2018-06-12T12:23:35.738Z,19.90
2018-06-12T12:26:10.298Z,19.90
2018-06-12T12:28:44.837Z,19.80
2018-06-12T12:31:19.325Z,20.30
2018-06-12T12:33:54.005Z,20.50
2018-06-12T12:36:28.281Z,20.40
2018-06-12T12:39:04.895Z,20.00
2018-06-12T12:41:39.718Z,20.10
2018-06-12T12:44:23.715Z,20.30
2018-06-12T12:47:04.739Z,20.20
2018-06-12T12:49:40.600Z,20.10
2018-06-12T12:52:15.732Z,20.20
2018-06-12T12:54:52.356Z,20.30
2018-06-12T12:57:28.361Z,20.40
2018-06-12T13:00:02.583Z,20.70
2018-06-12T13:02:40.384Z,21.00
2018-06-12T13:05:15.902Z,21.10
2018-06-12T13:07:51.008Z,21.30
2018-06-12T13:10:26.504Z,21.50
2018-06-12T13:13:00.698Z,21.30
2018-06-12T13:15:35.190Z,21.40
2018-06-12T13:18:10.906Z,21.30
2018-06-12T13:20:45.510Z,21.10
2018-06-12T13:23:19.844Z,21.30
2018-06-12T13:25:54.569Z,22.00
2018-06-12T13:28:29.918Z,22.50
2018-06-12T13:31:04.591Z,23.30
2018-06-12T13:33:39.179Z,23.20
2018-06-12T13:36:14.326Z,22.80
2018-06-12T13:38:49.148Z,22.10
2018-06-12T13:41:23.477Z,21.20
2018-06-12T13:43:58.341Z,21.40
2018-06-12T13:46:32.880Z,21.40
2018-06-12T13:49:07.452Z,21.50
2018-06-12T13:51:46.205Z,22.20
2018-06-12T13:54:20.492Z,22.80
2018-06-12T13:56:54.865Z,24.10
2018-06-12T13:59:29.897Z,24.50
2018-06-12T14:02:04.373Z,24.70
2018-06-12T14:04:39.131Z,24.60
2018-06-12T14:09:48.338Z,24.50
2018-06-12T14:12:23.027Z,22.90
2018-06-12T14:14:58.340Z,22.30
2018-06-12T14:17:32.684Z,21.10
2018-06-12T14:20:07.056Z,20.80
2018-06-12T14:22:41.733Z,20.80
2018-06-12T14:25:16.676Z,20.70
2018-06-12T14:27:50.925Z,20.50
2018-06-12T14:30:30.588Z,20.50
2018-06-12T14:33:08.009Z,20.80
2018-06-12T14:35:42.838Z,21.20
2018-06-12T14:38:17.931Z,21.80
2018-06-12T14:40:52.618Z,21.80
2018-06-12T14:43:26.964Z,21.10
2018-06-12T14:46:01.425Z,20.40
2018-06-12T14:48:35.712Z,20.20
2018-06-12T14:51:10.080Z,20.20
2018-06-12T14:58:53.120Z,19.60
2018-06-12T15:01:27.548Z,19.80
2018-06-12T15:04:02.577Z,20.20
2018-06-12T15:06:36.820Z,20.40
2018-06-12T15:09:11.092Z,19.90
2018-06-12T15:14:19.443Z,19.80
2018-06-12T15:16:53.762Z,20.20
2018-06-12T15:19:28.243Z,20.50
2018-06-12T15:22:03.687Z,20.50
2018-06-12T15:24:39.301Z,20.30
2018-06-12T15:27:14.509Z,20.30
2018-06-12T15:29:49.015Z,20.50
2018-06-12T15:32:24.421Z,20.50
2018-06-12T15:34:58.894Z,20.40
2018-06-12T15:37:33.364Z,20.50
2018-06-12T15:42:49.827Z,19.60
2018-06-12T15:45:25.624Z,19.40
2018-06-12T15:48:01.715Z,19.00
2018-06-12T15:50:36.195Z,18.80
2018-06-12T15:53:12.047Z,18.80
2018-06-12T15:55:48.156Z,18.70
2018-06-12T15:58:24.652Z,18.60
2018-06-12T16:00:59.539Z,18.80
2018-06-12T16:03:36.641Z,18.90
2018-06-12T16:06:11.709Z,19.20
2018-06-12T16:08:46.245Z,19.20
2018-06-12T16:11:20.540Z,19.30
2018-06-12T16:13:55.693Z,19.60
2018-06-12T16:16:29.898Z,19.90
2018-06-12T16:19:04.089Z,20.60
2018-06-12T16:21:38.431Z,21.60
2018-06-12T16:24:14.292Z,21.50
2018-06-12T16:26:49.196Z,21.30
2018-06-12T16:29:24.139Z,20.90
2018-06-12T16:31:58.573Z,20.20
2018-06-12T16:34:32.952Z,19.60
2018-06-12T16:37:10.444Z,19.30
2018-06-12T16:39:46.933Z,19.30
2018-06-12T16:42:21.876Z,19.10
2018-06-12T16:44:57.322Z,19.20
2018-06-12T16:47:31.569Z,19.20
2018-06-12T16:50:07.592Z,19.10
2018-06-12T16:52:42.655Z,18.70
2018-06-12T16:55:17.895Z,18.60
2018-06-12T16:57:53.816Z,18.60
2018-06-12T17:00:28.074Z,18.70
2018-06-12T17:03:02.856Z,18.70
2018-06-12T17:08:11.739Z,18.70
2018-06-12T17:10:46.006Z,18.60
2018-06-12T17:13:20.293Z,18.60
2018-06-12T17:15:56.157Z,18.50
2018-06-12T17:18:30.529Z,18.20
2018-06-12T17:21:04.861Z,18.20
2018-06-12T17:23:39.397Z,18.20
2018-06-12T17:26:13.811Z,18.00
2018-06-12T17:28:48.049Z,18.00
2018-06-12T17:31:22.549Z,17.90
2018-06-12T17:33:57.384Z,17.90
2018-06-12T17:36:31.800Z,17.80
2018-06-12T17:39:07.757Z,17.70
2018-06-12T17:41:43.916Z,17.60
2018-06-12T17:44:18.441Z,17.60
2018-06-12T17:46:52.643Z,17.50
2018-06-12T17:49:26.950Z,17.40
2018-06-12T17:52:01.177Z,17.40
2018-06-12T17:54:35.634Z,17.40
2018-06-12T17:57:10.686Z,17.30
2018-06-12T17:59:45.488Z,17.20
2018-06-12T18:02:19.732Z,17.20
2018-06-12T18:04:54.100Z,17.20
2018-06-12T18:07:28.972Z,17.30
2018-06-12T18:10:03.705Z,17.40
2018-06-12T18:12:44.672Z,17.40
2018-06-12T18:15:20.101Z,17.40
2018-06-12T18:17:54.439Z,17.40
2018-06-12T18:20:28.756Z,17.40
2018-06-12T18:23:03.375Z,17.40
2018-06-12T18:25:37.647Z,17.50
2018-06-12T18:28:14.412Z,17.40
2018-06-12T18:30:51.541Z,17.30
2018-06-12T18:33:26.903Z,17.30
2018-06-12T18:36:02.740Z,17.10
2018-06-12T18:41:12.981Z,17.10
2018-06-12T18:43:49.387Z,17.10
2018-06-12T18:46:24.977Z,17.00
2018-06-12T18:48:59.469Z,16.90
2018-06-12T18:51:33.700Z,16.80
2018-06-12T18:54:09.110Z,16.70
2018-06-12T18:56:43.386Z,16.70
2018-06-12T18:59:18.573Z,16.70
2018-06-12T19:04:33.837Z,16.70
2018-06-12T19:07:08.276Z,16.60
2018-06-12T19:09:42.645Z,16.60
2018-06-12T19:12:16.916Z,16.50
2018-06-12T19:14:51.415Z,16.30
2018-06-12T19:17:25.744Z,16.20
2018-06-12T19:20:00.150Z,16.20
2018-06-12T19:22:34.488Z,16.00
2018-06-12T19:25:09.950Z,16.00
2018-06-12T19:27:44.685Z,15.80
2018-06-12T19:30:19.023Z,15.80
2018-06-12T19:32:53.228Z,15.70
2018-06-12T19:35:28.683Z,15.80
2018-06-12T19:38:03.222Z,15.80
2018-06-12T19:40:37.528Z,15.80
2018-06-12T19:45:46.219Z,15.70
2018-06-12T19:48:20.524Z,15.70
2018-06-12T19:50:54.796Z,15.70
2018-06-12T19:53:29.272Z,15.70
2018-06-12T19:56:04.186Z,15.60
2018-06-12T19:58:38.848Z,15.70
2018-06-12T20:01:13.106Z,15.60
2018-06-12T20:03:47.424Z,15.60
2018-06-12T20:06:21.928Z,15.50
2018-06-12T20:08:56.187Z,15.50
2018-06-12T20:11:30.529Z,15.50
2018-06-12T20:14:04.953Z,15.50
2018-06-12T20:16:39.156Z,15.40
2018-06-12T20:19:13.423Z,15.40
2018-06-12T20:21:47.645Z,15.30
2018-06-12T20:24:21.952Z,15.30
2018-06-12T20:26:56.199Z,15.30
2018-06-12T20:29:30.377Z,15.30
2018-06-12T20:32:04.749Z,15.30
2018-06-12T20:34:39.106Z,15.20
2018-06-12T20:37:13.323Z,15.20
2018-06-12T20:39:49.013Z,15.20
2018-06-12T20:42:23.217Z,15.10
2018-06-12T20:44:58.421Z,15.10
2018-06-12T20:47:32.739Z,15.10
2018-06-12T20:50:07.940Z,15.10
2018-06-12T20:52:42.152Z,15.10
2018-06-12T20:55:16.540Z,15.10
2018-06-12T20:57:52.651Z,15.10
2018-06-12T21:00:28.513Z,15.10
2018-06-12T21:03:02.881Z,15.00
2018-06-12T21:05:38.309Z,15.10
2018-06-12T21:08:12.658Z,15.00
2018-06-12T21:10:47.065Z,15.00
2018-06-12T21:13:21.560Z,15.00
2018-06-12T21:15:55.884Z,14.90
2018-06-12T21:18:30.188Z,14.90
2018-06-12T21:21:04.766Z,15.00
2018-06-12T21:23:45.723Z,15.00
2018-06-12T21:26:20.243Z,15.00
2018-06-12T21:28:54.528Z,14.90
2018-06-12T21:31:28.945Z,14.90
2018-06-12T21:34:03.176Z,14.90
2018-06-12T21:36:37.897Z,14.90
2018-06-12T21:39:12.545Z,14.90
2018-06-12T21:44:22.204Z,14.90
2018-06-12T21:46:56.569Z,14.90
2018-06-12T21:49:32.502Z,14.90
2018-06-12T21:52:06.689Z,14.80
2018-06-12T21:54:41.109Z,14.80
2018-06-12T21:57:15.328Z,14.90
2018-06-12T21:59:50.360Z,14.90
2018-06-12T22:02:25.314Z,14.80
2018-06-12T22:04:59.704Z,14.80
2018-06-12T22:07:34.109Z,14.70
2018-06-12T22:10:08.456Z,14.70
2018-06-12T22:12:42.881Z,14.70
2018-06-12T22:15:17.220Z,14.70
2018-06-12T22:17:52.237Z,14.70
2018-06-12T22:20:27.358Z,14.70
2018-06-12T22:23:01.716Z,14.70
2018-06-12T22:25:36.137Z,14.80
2018-06-12T22:28:10.332Z,14.70
2018-06-12T22:30:44.644Z,14.70
2018-06-12T22:33:18.969Z,14.70
2018-06-12T22:35:53.288Z,14.70
2018-06-12T22:38:27.651Z,14.70
2018-06-12T22:41:02.024Z,14.70
2018-06-12T22:43:36.537Z,14.70
2018-06-12T22:46:11.070Z,14.60
2018-06-12T22:48:45.289Z,14.60
2018-06-12T22:51:19.632Z,14.60
2018-06-12T22:53:53.901Z,14.60
2018-06-12T22:56:28.433Z,14.60
2018-06-12T22:59:02.678Z,14.50
2018-06-12T23:01:36.914Z,14.50
2018-06-12T23:04:11.292Z,14.50
2018-06-12T23:06:45.594Z,14.50
2018-06-12T23:09:19.921Z,14.50
2018-06-12T23:11:54.237Z,14.50
2018-06-12T23:21:49.288Z,14.40
2018-06-12T23:24:23.569Z,14.40
2018-06-12T23:26:57.813Z,14.40
2018-06-12T23:29:32.147Z,14.40
2018-06-12T23:32:06.364Z,14.40
2018-06-12T23:34:40.664Z,14.40
2018-06-12T23:37:14.822Z,14.30
2018-06-12T23:39:49.044Z,14.30
2018-06-12T23:42:23.350Z,14.40
2018-06-12T23:44:57.548Z,14.30
2018-06-12T23:47:31.848Z,14.20
2018-06-12T23:50:06.095Z,14.20
2018-06-12T23:52:40.440Z,14.20
2018-06-12T23:55:14.761Z,14.20
2018-06-12T23:57:49.050Z,14.20
